Terminal Aerodrome Forecast
Issued by NWS

Home | Current Version | Previous Version | Text Only | Print | Product List | Glossary On
Versions: 1 2 3 4 5 6 7 8 9 10 11 12 13 14
000
FTUS45 KRIW 280500
TAFLND
TAF
KLND 280540Z 2806/2906 26008KT P6SM FEW140 SCT200 WS017/26040KT
     FM281800 26011G25KT P6SM SCT200 WS018/25050KT
     FM290200 26020G38KT P6SM FEW140 SCT200=

USA.gov is the U.S. government's official web portal to all federal, state and local government web resources and services.